createdAt,value
2022-09-06T00:01:15.154Z,96184.55
2022-09-06T00:03:43.708Z,96179.89
2022-09-06T00:06:15.133Z,96179.79
2022-09-06T00:08:44.972Z,96180.92
2022-09-06T00:11:14.218Z,96180.12
2022-09-06T00:13:42.652Z,96177.38
2022-09-06T00:16:13.067Z,96174.00
2022-09-06T00:18:43.095Z,96172.34
2022-09-06T00:21:20.849Z,96173.64
2022-09-06T00:23:49.197Z,96175.11
2022-09-06T00:26:18.073Z,96175.41
2022-09-06T00:28:46.754Z,96172.71
2022-09-06T00:31:24.605Z,96172.00
2022-09-06T00:33:53.384Z,96167.89
2022-09-06T00:36:22.851Z,96171.50
2022-09-06T00:38:51.091Z,96170.36
2022-09-06T00:41:19.614Z,96165.00
2022-09-06T00:43:47.994Z,96162.52
2022-09-06T00:46:19.357Z,96156.57
2022-09-06T00:48:51.207Z,96159.94
2022-09-06T00:51:21.477Z,96161.23
2022-09-06T00:53:50.954Z,96166.68
2022-09-06T00:56:19.461Z,96167.38
2022-09-06T00:58:48.723Z,96170.11
2022-09-06T01:01:16.985Z,96169.22
2022-09-06T01:03:45.421Z,96170.76
2022-09-06T01:06:24.857Z,96173.27
2022-09-06T01:09:12.105Z,96174.67
2022-09-06T01:11:52.407Z,96178.90
2022-09-06T01:14:57.752Z,96179.25
2022-09-06T01:17:47.638Z,96179.16
2022-09-06T01:20:44.301Z,96180.63
2022-09-06T01:23:31.546Z,96181.08
2022-09-06T01:26:30.512Z,96177.04
2022-09-06T01:28:59.293Z,96173.08
2022-09-06T01:31:42.952Z,96170.50
2022-09-06T01:34:32.101Z,96169.16
2022-09-06T01:37:10.205Z,96175.58
2022-09-06T01:39:40.692Z,96177.10
2022-09-06T01:42:20.420Z,96178.64
2022-09-06T01:45:11.703Z,96176.29
2022-09-06T01:47:58.640Z,96174.86
2022-09-06T01:50:48.435Z,96176.30
2022-09-06T01:53:32.253Z,96173.77
2022-09-06T01:56:12.634Z,96170.39
2022-09-06T01:59:19.183Z,96171.43
2022-09-06T02:02:12.933Z,96163.05
2022-09-06T02:04:53.692Z,96165.17
2022-09-06T02:07:31.538Z,96169.14
2022-09-06T02:10:07.478Z,96173.30
2022-09-06T02:12:39.556Z,96170.96
2022-09-06T02:15:35.995Z,96169.48
2022-09-06T02:18:10.874Z,96169.63
2022-09-06T02:20:45.284Z,96172.23
2022-09-06T02:23:15.454Z,96174.65
2022-09-06T02:25:51.472Z,96171.84
2022-09-06T02:28:19.916Z,96174.00
2022-09-06T02:30:53.606Z,96168.83
2022-09-06T02:33:27.247Z,96166.16
2022-09-06T02:35:56.023Z,96169.25
2022-09-06T02:38:26.903Z,96170.16
2022-09-06T02:40:57.075Z,96171.73
2022-09-06T02:43:25.252Z,96169.10
2022-09-06T02:45:53.372Z,96167.75
2022-09-06T02:48:22.243Z,96167.12
2022-09-06T02:50:50.496Z,96167.70
2022-09-06T02:53:19.071Z,96169.94
2022-09-06T02:55:49.022Z,96171.84
2022-09-06T02:58:17.366Z,96168.18
2022-09-06T03:00:45.554Z,96167.61
2022-09-06T03:03:14.038Z,96167.23
2022-09-06T03:05:43.025Z,96164.06
2022-09-06T03:08:11.415Z,96163.98
2022-09-06T03:10:39.691Z,96163.20
2022-09-06T03:13:08.071Z,96166.45
2022-09-06T03:15:36.248Z,96167.02
2022-09-06T03:18:04.559Z,96172.81
2022-09-06T03:20:36.953Z,96170.50
2022-09-06T03:23:05.998Z,96180.07
2022-09-06T03:25:34.486Z,96179.60
2022-09-06T03:28:03.512Z,96181.62
2022-09-06T03:30:32.137Z,96177.71
2022-09-06T03:33:02.827Z,96174.32
2022-09-06T03:35:32.203Z,96172.77
2022-09-06T03:38:00.382Z,96172.68
2022-09-06T03:40:28.573Z,96176.09
2022-09-06T03:42:57.171Z,96177.52
2022-09-06T03:45:25.550Z,96176.85
2022-09-06T03:47:54.001Z,96178.83
2022-09-06T03:50:22.190Z,96182.09
2022-09-06T03:52:50.454Z,96184.60
2022-09-06T03:55:18.757Z,96183.70
2022-09-06T03:57:46.893Z,96179.85
2022-09-06T04:00:15.701Z,96179.80
2022-09-06T04:02:43.886Z,96181.80
2022-09-06T04:05:13.434Z,96179.39
2022-09-06T04:07:43.316Z,96176.85
2022-09-06T04:10:11.579Z,96182.33
2022-09-06T04:12:39.794Z,96181.78
2022-09-06T04:15:08.645Z,96178.71
2022-09-06T04:17:37.129Z,96177.71
2022-09-06T04:20:06.166Z,96178.69
2022-09-06T04:22:34.235Z,96177.55
2022-09-06T04:25:03.533Z,96179.11
2022-09-06T04:27:32.025Z,96179.12
2022-09-06T04:30:00.181Z,96174.80
2022-09-06T04:32:28.637Z,96170.72
2022-09-06T04:34:56.918Z,96168.61
2022-09-06T04:37:25.212Z,96172.38
2022-09-06T04:39:54.514Z,96172.27
2022-09-06T04:42:23.004Z,96171.27
2022-09-06T04:44:51.275Z,96175.56
2022-09-06T04:47:19.854Z,96179.59
2022-09-06T04:49:50.805Z,96180.60
2022-09-06T04:52:19.371Z,96171.72
2022-09-06T04:54:47.682Z,96173.15
2022-09-06T04:57:16.052Z,96169.98
2022-09-06T04:59:44.412Z,96168.89
2022-09-06T05:02:13.020Z,96163.54
2022-09-06T05:04:41.505Z,96163.38
2022-09-06T05:07:09.967Z,96162.89
2022-09-06T05:09:38.343Z,96165.38
2022-09-06T05:12:07.285Z,96159.98
2022-09-06T05:14:36.169Z,96162.71
2022-09-06T05:17:04.547Z,96162.88
2022-09-06T05:19:33.210Z,96162.20
2022-09-06T05:22:01.481Z,96167.50
2022-09-06T05:24:29.576Z,96169.03
2022-09-06T05:26:57.825Z,96169.83
2022-09-06T05:29:30.411Z,96170.39
2022-09-06T05:31:59.400Z,96171.66
2022-09-06T05:34:27.723Z,96175.36
2022-09-06T05:36:55.865Z,96177.98
2022-09-06T05:39:24.253Z,96177.22
2022-09-06T05:41:52.619Z,96174.33
2022-09-06T05:44:20.733Z,96170.15
2022-09-06T05:46:49.102Z,96169.91
2022-09-06T05:49:17.214Z,96169.33
2022-09-06T05:51:51.045Z,96169.73
2022-09-06T05:54:19.452Z,96172.43
2022-09-06T05:56:47.719Z,96173.14
2022-09-06T05:59:15.990Z,96173.77
2022-09-06T06:01:52.605Z,96172.56
2022-09-06T06:04:22.619Z,96174.05
2022-09-06T06:06:51.783Z,96174.77
2022-09-06T06:09:22.216Z,96169.54
2022-09-06T06:11:50.497Z,96167.49
2022-09-06T06:14:18.781Z,96161.25
2022-09-06T06:16:47.176Z,96158.54
2022-09-06T06:19:15.638Z,96160.46
2022-09-06T06:21:44.112Z,96158.10
2022-09-06T06:24:12.412Z,96161.23
2022-09-06T06:26:40.899Z,96159.08
2022-09-06T06:29:09.834Z,96161.36
2022-09-06T06:31:39.358Z,96160.39
2022-09-06T06:34:08.359Z,96163.57
2022-09-06T06:36:37.289Z,96163.62
2022-09-06T06:39:08.569Z,96163.08
2022-09-06T06:41:36.812Z,96160.38
2022-09-06T06:44:10.203Z,96165.08
2022-09-06T06:46:39.181Z,96159.68
2022-09-06T06:49:07.461Z,96159.75
2022-09-06T06:51:39.591Z,96158.61
2022-09-06T06:54:07.910Z,96155.32
2022-09-06T06:56:45.034Z,96156.77
2022-09-06T06:59:14.706Z,96159.30
2022-09-06T07:01:43.309Z,96166.20
2022-09-06T07:04:12.593Z,96165.60
2022-09-06T07:12:45.112Z,96166.13
2022-09-06T07:15:13.704Z,96167.85
2022-09-06T07:17:41.915Z,96169.45
2022-09-06T07:22:45.120Z,96166.03
2022-09-06T07:25:20.587Z,96161.59
2022-09-06T07:28:08.251Z,96165.59
2022-09-06T07:30:37.680Z,96166.19
2022-09-06T07:33:06.500Z,96165.04
2022-09-06T07:35:35.403Z,96167.78
2022-09-06T07:38:04.976Z,96171.47
2022-09-06T07:40:33.451Z,96171.77
2022-09-06T07:43:01.872Z,96177.03
2022-09-06T07:45:30.418Z,96180.57
2022-09-06T07:47:59.962Z,96176.82
2022-09-06T07:50:48.019Z,96174.61
2022-09-06T07:53:26.344Z,96169.64
2022-09-06T07:56:00.556Z,96168.40
2022-09-06T07:58:30.615Z,96169.98
2022-09-06T08:01:34.636Z,96167.22
2022-09-06T08:04:05.701Z,96168.93
2022-09-06T08:09:25.481Z,96170.39
2022-09-06T08:11:54.204Z,96169.42
2022-09-06T08:14:22.980Z,96170.61
2022-09-06T08:16:51.239Z,96173.17
2022-09-06T08:19:19.419Z,96174.73
2022-09-06T08:21:47.625Z,96173.16
2022-09-06T08:24:16.023Z,96172.59
2022-09-06T08:26:44.632Z,96171.36
2022-09-06T08:29:13.703Z,96171.85
2022-09-06T08:31:44.574Z,96166.45
2022-09-06T08:34:14.449Z,96166.27
2022-09-06T08:36:43.449Z,96163.83
2022-09-06T08:39:11.951Z,96162.92
2022-09-06T08:41:53.929Z,96169.04
2022-09-06T08:47:22.899Z,96165.30
2022-09-06T08:49:57.376Z,96160.31
2022-09-06T08:52:54.386Z,96160.41
2022-09-06T08:55:40.745Z,96160.77
2022-09-06T08:58:46.026Z,96159.06
2022-09-06T09:01:19.641Z,96155.71
2022-09-06T09:03:48.221Z,96158.83
2022-09-06T09:06:17.324Z,96155.34
2022-09-06T09:08:46.478Z,96153.93
2022-09-06T09:11:20.127Z,96157.80
2022-09-06T09:13:55.804Z,96155.45
2022-09-06T09:16:24.851Z,96154.39
2022-09-06T09:18:56.854Z,96150.80
2022-09-06T09:21:31.232Z,96151.31
2022-09-06T09:24:06.645Z,96150.52
2022-09-06T09:26:42.451Z,96145.11
2022-09-06T09:29:14.482Z,96148.08
2022-09-06T09:31:53.742Z,96149.11
2022-09-06T09:34:35.889Z,96148.80
2022-09-06T09:40:13.228Z,96146.34
2022-09-06T09:42:42.878Z,96147.20
2022-09-06T09:45:38.370Z,96145.63
2022-09-06T09:48:29.946Z,96148.75
2022-09-06T09:51:27.647Z,96148.19
2022-09-06T09:53:58.894Z,96147.89
2022-09-06T09:56:37.909Z,96151.16
2022-09-06T09:59:31.028Z,96146.57
2022-09-06T10:02:01.708Z,96148.50
2022-09-06T10:04:45.687Z,96149.08
2022-09-06T10:07:19.014Z,96148.55
2022-09-06T10:09:59.779Z,96149.58
2022-09-06T10:12:31.897Z,96150.67
2022-09-06T10:15:04.915Z,96151.77
2022-09-06T10:17:49.128Z,96147.83
2022-09-06T10:20:17.774Z,96142.16
2022-09-06T10:22:56.741Z,96142.98
2022-09-06T10:25:46.260Z,96144.61
2022-09-06T10:28:20.718Z,96145.52
2022-09-06T10:31:21.585Z,96145.08
2022-09-06T10:34:16.962Z,96144.44
2022-09-06T10:37:05.629Z,96142.36
2022-09-06T10:39:50.759Z,96140.04
2022-09-06T10:42:48.061Z,96143.33
2022-09-06T10:45:35.221Z,96140.92
2022-09-06T10:48:14.442Z,96145.33
2022-09-06T10:50:55.083Z,96142.77
2022-09-06T10:53:35.372Z,96138.39
2022-09-06T10:56:08.981Z,96137.74
2022-09-06T11:01:41.485Z,96138.41
2022-09-06T11:04:20.271Z,96141.44
2022-09-06T11:06:53.713Z,96139.66
2022-09-06T11:09:33.200Z,96141.68
2022-09-06T11:12:08.157Z,96143.77
2022-09-06T11:14:38.212Z,96143.67
2022-09-06T11:17:19.131Z,96139.92
2022-09-06T11:20:02.042Z,96132.59
2022-09-06T11:23:08.673Z,96136.73
2022-09-06T11:25:54.609Z,96137.20
2022-09-06T11:28:42.288Z,96130.45
2022-09-06T11:34:10.807Z,96128.66
2022-09-06T11:36:52.168Z,96131.43
2022-09-06T11:42:44.339Z,96125.64
2022-09-06T11:45:48.732Z,96125.08
2022-09-06T11:48:35.499Z,96121.02
2022-09-06T11:51:11.339Z,96120.59
2022-09-06T11:53:48.594Z,96120.10
2022-09-06T11:56:29.313Z,96113.79
2022-09-06T11:59:20.480Z,96105.48
2022-09-06T12:02:02.190Z,96099.39
2022-09-06T12:05:01.945Z,96096.58
2022-09-06T12:08:11.146Z,96092.06
2022-09-06T12:10:39.315Z,96089.40
2022-09-06T12:13:52.836Z,96080.02
2022-09-06T12:16:21.739Z,96078.61
2022-09-06T12:18:49.940Z,96074.30
2022-09-06T12:21:39.894Z,96071.39
2022-09-06T12:24:29.370Z,96064.90
2022-09-06T12:27:15.938Z,96061.95
2022-09-06T12:30:00.642Z,96058.20
2022-09-06T12:32:34.794Z,96055.89
2022-09-06T12:38:07.062Z,96049.28
2022-09-06T12:40:41.595Z,96043.11
2022-09-06T12:43:13.090Z,96041.49
2022-09-06T12:45:53.291Z,96038.09
2022-09-06T12:48:30.722Z,96034.17
2022-09-06T12:51:07.518Z,96031.98
2022-09-06T12:53:35.879Z,96026.58
2022-09-06T12:56:06.906Z,96028.02
2022-09-06T12:58:36.668Z,96027.50
2022-09-06T13:01:17.516Z,96029.21
2022-09-06T13:04:03.477Z,96024.05
2022-09-06T13:06:42.388Z,96024.26
2022-09-06T13:09:14.631Z,96018.13
2022-09-06T13:11:46.622Z,96018.23
2022-09-06T13:14:23.834Z,96017.04
2022-09-06T13:16:56.893Z,96012.23
2022-09-06T13:19:40.295Z,96011.81
2022-09-06T13:22:11.278Z,96014.89
2022-09-06T13:24:46.900Z,96017.30
2022-09-06T13:27:31.082Z,96013.92
2022-09-06T13:30:01.067Z,96010.01
2022-09-06T13:32:29.801Z,96006.15
2022-09-06T13:35:00.175Z,96002.83
2022-09-06T13:37:31.656Z,96002.67
2022-09-06T13:40:00.126Z,96000.95
2022-09-06T13:42:38.671Z,95995.94
2022-09-06T13:45:27.320Z,95992.64
2022-09-06T13:48:07.830Z,95992.88
2022-09-06T13:50:44.869Z,95991.13
2022-09-06T13:53:19.783Z,95991.46
2022-09-06T13:55:48.098Z,95990.48
2022-09-06T13:58:16.276Z,95989.65
2022-09-06T14:00:46.479Z,95990.33
2022-09-06T14:03:25.233Z,95994.16
2022-09-06T14:05:53.484Z,95994.16
2022-09-06T14:08:21.774Z,95992.08
2022-09-06T14:10:52.204Z,95989.27
2022-09-06T14:13:21.392Z,95987.80
2022-09-06T14:15:50.558Z,95986.06
2022-09-06T14:18:19.179Z,95981.14
2022-09-06T14:20:56.450Z,95979.02
2022-09-06T14:23:28.357Z,95978.38
2022-09-06T14:25:58.362Z,95980.74
2022-09-06T14:28:27.231Z,95975.66
2022-09-06T14:30:55.737Z,95973.80
2022-09-06T14:33:24.381Z,95969.45
2022-09-06T14:35:52.522Z,95963.54
2022-09-06T14:38:20.965Z,95965.31
2022-09-06T14:40:49.349Z,95965.71
2022-09-06T14:43:17.828Z,95963.16
2022-09-06T14:45:46.075Z,95960.01
2022-09-06T14:48:15.020Z,95959.83
2022-09-06T14:50:43.242Z,95957.67
2022-09-06T14:53:30.128Z,95952.91
2022-09-06T14:56:04.009Z,95951.44
2022-09-06T14:58:34.224Z,95955.77
2022-09-06T15:01:15.789Z,95960.09
2022-09-06T15:03:48.681Z,95950.66
2022-09-06T15:06:17.467Z,95954.97
2022-09-06T15:08:46.282Z,95950.98
2022-09-06T15:11:16.282Z,95948.11
2022-09-06T15:13:44.579Z,95948.83
2022-09-06T15:16:12.874Z,95952.09
2022-09-06T15:18:41.187Z,95950.45
2022-09-06T15:21:11.707Z,95946.25
2022-09-06T15:23:40.927Z,95946.58
2022-09-06T15:26:13.712Z,95951.55
2022-09-06T15:28:46.052Z,95944.98
2022-09-06T15:31:17.551Z,95943.70
2022-09-06T15:33:46.386Z,95945.70
2022-09-06T15:36:16.493Z,95949.90
2022-09-06T15:38:48.160Z,95947.75
2022-09-06T15:41:22.933Z,95950.67
2022-09-06T15:43:55.123Z,95949.14
2022-09-06T15:46:55.586Z,95949.52
2022-09-06T15:49:28.055Z,95950.94
2022-09-06T15:51:58.800Z,95951.55
2022-09-06T15:54:47.080Z,95951.98
2022-09-06T15:57:17.100Z,95954.56
2022-09-06T15:59:46.269Z,95958.05
2022-09-06T16:02:15.343Z,95959.91
2022-09-06T16:04:45.342Z,95963.39
2022-09-06T16:07:14.813Z,95955.55
2022-09-06T16:09:43.809Z,95956.35
2022-09-06T16:12:12.033Z,95956.42
2022-09-06T16:14:40.314Z,95957.14
2022-09-06T16:17:09.144Z,95955.56
2022-09-06T16:19:39.824Z,95955.38
2022-09-06T16:22:08.956Z,95950.63
2022-09-06T16:24:38.097Z,95955.76
2022-09-06T16:27:07.279Z,95952.14
2022-09-06T16:29:35.454Z,95952.55
2022-09-06T16:32:03.624Z,95952.38
2022-09-06T16:34:31.858Z,95948.04
2022-09-06T16:37:00.327Z,95948.45
2022-09-06T16:39:28.625Z,95946.65
2022-09-06T16:41:56.924Z,95944.20
2022-09-06T16:44:25.233Z,95948.66
2022-09-06T16:46:56.243Z,95943.83
2022-09-06T16:49:24.726Z,95942.38
2022-09-06T16:51:53.228Z,95941.30
2022-09-06T16:54:21.794Z,95941.33
2022-09-06T16:56:50.179Z,95942.98
2022-09-06T16:59:18.803Z,95943.99
2022-09-06T17:01:47.514Z,95943.82
2022-09-06T17:04:16.258Z,95943.42
2022-09-06T17:06:45.977Z,95942.39
2022-09-06T17:09:17.813Z,95939.09
2022-09-06T17:11:49.937Z,95938.08
2022-09-06T17:14:18.986Z,95937.23
2022-09-06T17:17:06.003Z,95936.93
2022-09-06T17:19:40.812Z,95945.70
2022-09-06T17:22:10.486Z,95946.70
2022-09-06T17:24:39.128Z,95944.39
2022-09-06T17:27:08.721Z,95946.38
2022-09-06T17:29:37.457Z,95952.52
2022-09-06T17:32:10.442Z,95957.02
2022-09-06T17:34:39.976Z,95959.18
2022-09-06T17:37:09.039Z,95956.91
2022-09-06T17:39:37.904Z,95958.23
2022-09-06T17:42:07.008Z,95959.32
2022-09-06T17:44:35.851Z,95961.02
2022-09-06T17:47:13.446Z,95962.72
2022-09-06T17:49:43.561Z,95966.67
2022-09-06T17:52:12.124Z,95968.71
2022-09-06T17:54:40.273Z,95970.30
2022-09-06T17:57:08.490Z,95973.33
2022-09-06T17:59:36.932Z,95975.45
2022-09-06T18:02:05.620Z,95978.04
2022-09-06T18:04:33.887Z,95983.76
2022-09-06T18:07:02.485Z,95989.69
2022-09-06T18:09:30.750Z,95990.11
2022-09-06T18:11:59.453Z,95999.34
2022-09-06T18:14:28.722Z,96004.12
2022-09-06T18:16:57.287Z,96006.95
2022-09-06T18:19:27.659Z,96005.88
2022-09-06T18:21:57.511Z,96005.23
2022-09-06T18:24:25.813Z,96006.90
2022-09-06T18:26:54.137Z,96004.36
2022-09-06T18:29:22.617Z,96007.17
2022-09-06T18:31:53.880Z,96003.24
2022-09-06T18:34:22.352Z,96003.84
2022-09-06T18:36:50.955Z,96007.01
2022-09-06T18:39:20.620Z,96008.36
2022-09-06T18:42:01.174Z,96011.79
2022-09-06T18:44:32.529Z,96014.05
2022-09-06T18:47:03.356Z,96016.42
2022-09-06T18:49:32.629Z,96012.55
2022-09-06T18:52:02.484Z,96008.08
2022-09-06T18:54:31.930Z,95999.23
2022-09-06T18:57:00.304Z,95997.63
2022-09-06T18:59:28.545Z,95998.33
2022-09-06T19:01:57.672Z,95999.98
2022-09-06T19:04:26.163Z,95999.80
2022-09-06T19:06:54.445Z,96003.82
2022-09-06T19:09:23.434Z,96009.97
2022-09-06T19:11:53.381Z,96015.96
2022-09-06T19:14:22.103Z,96008.85
2022-09-06T19:16:52.057Z,96009.23
2022-09-06T19:19:21.926Z,96007.19
2022-09-06T19:21:50.316Z,96005.89
2022-09-06T19:24:22.920Z,96003.37
2022-09-06T19:26:52.937Z,96005.70
2022-09-06T19:29:21.339Z,96009.62
2022-09-06T19:31:49.718Z,96010.59
2022-09-06T19:34:18.504Z,96010.49
2022-09-06T19:36:46.884Z,96013.73
2022-09-06T19:39:16.944Z,96012.88
2022-09-06T19:41:47.449Z,96014.38
2022-09-06T19:44:17.245Z,96007.37
2022-09-06T19:46:47.463Z,96000.35
2022-09-06T19:49:17.512Z,95995.45
2022-09-06T19:51:48.965Z,95995.93
2022-09-06T19:54:18.460Z,95993.70
2022-09-06T19:56:47.241Z,95994.58
2022-09-06T19:59:17.870Z,95995.32
2022-09-06T20:01:47.876Z,95993.20
2022-09-06T20:04:16.267Z,95993.18
2022-09-06T20:06:44.706Z,95990.70
2022-09-06T20:09:15.699Z,95989.29
2022-09-06T20:11:44.083Z,95984.89
2022-09-06T20:14:13.345Z,95985.05
2022-09-06T20:16:42.727Z,95986.88
2022-09-06T20:19:12.830Z,95980.89
2022-09-06T20:21:40.982Z,95980.66
2022-09-06T20:24:09.363Z,95977.05
2022-09-06T20:26:38.074Z,95976.64
2022-09-06T20:29:07.200Z,95976.11
2022-09-06T20:31:37.103Z,95979.11
2022-09-06T20:34:06.562Z,95976.38
2022-09-06T20:36:35.369Z,95975.63
2022-09-06T20:39:04.356Z,95974.50
2022-09-06T20:41:34.048Z,95970.20
2022-09-06T20:44:03.062Z,95969.27
2022-09-06T20:46:34.137Z,95970.02
2022-09-06T20:49:04.935Z,95963.67
2022-09-06T20:51:35.169Z,95964.36
2022-09-06T20:54:05.482Z,95960.45
2022-09-06T20:56:38.796Z,95968.05
2022-09-06T20:59:09.432Z,95966.66
2022-09-06T21:01:41.872Z,95964.50
2022-09-06T21:04:11.845Z,95965.45
2022-09-06T21:06:41.328Z,95966.19
2022-09-06T21:09:11.805Z,95963.54
2022-09-06T21:11:41.361Z,95963.02
2022-09-06T21:14:10.396Z,95960.84
2022-09-06T21:16:40.920Z,95963.05
2022-09-06T21:19:11.101Z,95963.16
2022-09-06T21:21:40.150Z,95958.70
2022-09-06T21:24:09.762Z,95960.14
2022-09-06T21:26:38.611Z,95959.16
2022-09-06T21:29:07.020Z,95959.00
2022-09-06T21:31:37.373Z,95958.40
2022-09-06T21:34:12.524Z,95960.79
2022-09-06T21:36:44.503Z,95958.21
2022-09-06T21:39:13.332Z,95953.63
2022-09-06T21:41:43.563Z,95952.79
2022-09-06T21:44:12.899Z,95950.59
2022-09-06T21:46:41.432Z,95952.70
2022-09-06T21:49:12.899Z,95943.85
2022-09-06T21:51:42.186Z,95943.15
2022-09-06T21:54:10.559Z,95939.73
2022-09-06T21:56:39.904Z,95938.87
2022-09-06T21:59:08.758Z,95928.77
2022-09-06T22:01:38.256Z,95927.21
2022-09-06T22:04:07.074Z,95930.61
2022-09-06T22:06:36.416Z,95933.50
2022-09-06T22:09:11.276Z,95936.71
2022-09-06T22:11:42.209Z,95946.31
2022-09-06T22:14:13.290Z,95943.92
2022-09-06T22:16:42.304Z,95942.79
2022-09-06T22:19:11.001Z,95940.64
2022-09-06T22:21:39.667Z,95941.13
2022-09-06T22:24:11.459Z,95935.77
2022-09-06T22:26:40.764Z,95929.27
2022-09-06T22:29:11.072Z,95927.73
2022-09-06T22:31:40.322Z,95920.96
2022-09-06T22:34:10.505Z,95921.78
2022-09-06T22:36:39.269Z,95919.52
2022-09-06T22:39:07.727Z,95919.39
2022-09-06T22:41:35.860Z,95921.05
2022-09-06T22:44:05.393Z,95922.60
2022-09-06T22:46:34.135Z,95921.53
2022-09-06T22:49:04.066Z,95916.52
2022-09-06T22:51:32.626Z,95915.90
2022-09-06T22:54:00.799Z,95915.27
2022-09-06T22:56:29.030Z,95911.52
2022-09-06T22:58:58.866Z,95911.89
2022-09-06T23:01:27.145Z,95909.40
2022-09-06T23:03:55.428Z,95906.41
2022-09-06T23:06:23.454Z,95901.70
2022-09-06T23:08:51.717Z,95900.34
2022-09-06T23:11:20.038Z,95903.52
2022-09-06T23:13:48.395Z,95903.06
2022-09-06T23:16:19.043Z,95907.02
2022-09-06T23:18:48.462Z,95905.73
2022-09-06T23:21:19.547Z,95898.65
2022-09-06T23:23:49.667Z,95897.98
2022-09-06T23:26:23.395Z,95896.52
2022-09-06T23:28:51.869Z,95894.43
2022-09-06T23:31:20.007Z,95887.17
2022-09-06T23:33:52.272Z,95884.27
2022-09-06T23:36:21.114Z,95879.95
2022-09-06T23:38:49.500Z,95880.39
2022-09-06T23:41:18.232Z,95880.05
2022-09-06T23:43:46.237Z,95880.16
2022-09-06T23:46:17.300Z,95879.71
2022-09-06T23:48:45.750Z,95880.27
2022-09-06T23:51:14.133Z,95874.32
2022-09-06T23:53:42.410Z,95877.04
2022-09-06T23:56:11.205Z,95871.41
2022-09-06T23:58:40.224Z,95868.64
